createdAt,value
2022-08-09T00:00:23.138Z,4.55
2022-08-09T00:02:51.653Z,3.90
2022-08-09T00:06:18.144Z,3.30
2022-08-09T00:08:31.446Z,4.22
2022-08-09T00:10:59.887Z,4.45
2022-08-09T00:13:28.220Z,3.25
2022-08-09T00:16:02.409Z,2.95
2022-08-09T00:18:34.911Z,2.92
2022-08-09T00:21:07.732Z,2.65
2022-08-09T00:23:56.447Z,2.90
2022-08-09T00:26:32.242Z,3.60
2022-08-09T00:29:01.745Z,3.38
2022-08-09T00:31:58.777Z,2.53
2022-08-09T00:34:19.284Z,3.15
2022-08-09T00:36:48.780Z,2.75
2022-08-09T00:40:13.770Z,3.30
2022-08-09T00:44:13.224Z,3.63
2022-08-09T00:44:52.104Z,3.55
2022-08-09T00:47:24.725Z,4.00
2022-08-09T00:49:56.489Z,3.35
2022-08-09T00:52:30.289Z,3.83
2022-08-09T00:55:02.312Z,3.60
2022-08-09T00:57:34.842Z,3.88
2022-08-09T01:00:21.029Z,3.80
2022-08-09T01:02:54.242Z,4.07
2022-08-09T01:05:46.414Z,4.10
2022-08-09T01:08:30.015Z,4.50
2022-08-09T01:11:09.088Z,4.50
2022-08-09T01:13:59.829Z,4.43
2022-08-09T01:16:35.381Z,4.93
2022-08-09T01:19:17.237Z,5.47
2022-08-09T01:22:04.448Z,4.72
2022-08-09T01:25:05.814Z,5.15
2022-08-09T01:27:36.263Z,5.57
2022-08-09T01:30:07.246Z,5.63
2022-08-09T01:32:46.377Z,5.95
2022-08-09T01:35:37.548Z,6.75
2022-08-09T01:38:16.525Z,6.18
2022-08-09T01:41:03.098Z,6.32
2022-08-09T01:43:42.018Z,5.88
2022-08-09T01:46:26.403Z,5.53
2022-08-09T01:49:12.682Z,6.85
2022-08-09T01:51:54.766Z,6.65
2022-08-09T01:54:26.786Z,6.82
2022-08-09T01:56:56.848Z,6.93
2022-08-09T01:59:24.448Z,8.13
2022-08-09T02:02:01.266Z,6.15
2022-08-09T02:04:31.861Z,6.65
2022-08-09T02:07:18.576Z,7.05
2022-08-09T02:10:19.826Z,6.68
2022-08-09T02:13:01.148Z,5.90
2022-08-09T02:15:48.832Z,6.15
2022-08-09T02:18:21.231Z,6.70
2022-08-09T02:20:56.092Z,6.25
2022-08-09T02:23:42.677Z,5.28
2022-08-09T02:26:26.952Z,6.90
2022-08-09T02:28:59.925Z,6.25
2022-08-09T02:31:40.916Z,6.15
2022-08-09T02:34:25.945Z,6.97
2022-08-09T02:37:08.028Z,7.15
2022-08-09T02:39:49.783Z,5.80
2022-08-09T02:42:37.044Z,7.22
2022-08-09T02:45:12.590Z,7.57
2022-08-09T02:47:57.463Z,8.02
2022-08-09T02:50:41.501Z,6.38
2022-08-09T02:53:26.344Z,7.13
2022-08-09T02:55:58.254Z,6.93
2022-08-09T02:58:36.916Z,5.28
2022-08-09T03:01:11.087Z,7.78
2022-08-09T03:04:16.861Z,7.85
2022-08-09T03:06:32.384Z,7.45
2022-08-09T03:09:01.837Z,7.88
2022-08-09T03:12:05.837Z,8.15
2022-08-09T03:14:21.829Z,8.98
2022-08-09T03:16:58.253Z,8.32
2022-08-09T03:19:58.650Z,8.90
2022-08-09T03:22:25.101Z,8.63
2022-08-09T03:25:13.621Z,8.77
2022-08-09T03:27:50.801Z,9.75
2022-08-09T03:30:30.159Z,8.73
2022-08-09T03:33:05.624Z,8.60
2022-08-09T03:36:13.892Z,8.73
2022-08-09T03:41:01.158Z,8.90
2022-08-09T03:43:32.110Z,6.90
2022-08-09T03:46:03.912Z,8.70
2022-08-09T03:48:55.289Z,9.00
2022-08-09T03:51:55.541Z,7.15
2022-08-09T03:54:14.148Z,7.85
2022-08-09T03:56:42.350Z,7.80
2022-08-09T03:59:13.584Z,7.63
2022-08-09T04:01:45.700Z,8.80
2022-08-09T04:04:14.474Z,8.18
2022-08-09T04:06:48.858Z,7.72
2022-08-09T04:09:42.156Z,6.95
2022-08-09T04:12:30.852Z,9.30
2022-08-09T04:15:01.598Z,8.40
2022-08-09T04:17:31.432Z,7.97
2022-08-09T04:20:02.648Z,8.30
2022-08-09T04:22:30.487Z,8.48
2022-08-09T04:24:59.648Z,8.02
2022-08-09T04:27:29.035Z,7.97
2022-08-09T04:29:56.687Z,7.22
2022-08-09T04:32:37.090Z,8.50
2022-08-09T04:37:45.976Z,7.47
2022-08-09T04:40:28.840Z,7.97
2022-08-09T04:43:02.007Z,8.05
2022-08-09T04:45:31.119Z,7.65
2022-08-09T04:48:09.509Z,8.10
2022-08-09T04:50:37.785Z,7.50
2022-08-09T04:53:13.222Z,8.38
2022-08-09T04:55:57.840Z,7.90
2022-08-09T04:58:31.839Z,6.95
2022-08-09T05:01:01.498Z,6.63
2022-08-09T05:03:39.975Z,8.40
2022-08-09T05:06:09.918Z,8.02
2022-08-09T05:08:38.782Z,7.40
2022-08-09T05:11:11.231Z,8.00
2022-08-09T05:13:39.157Z,7.78
2022-08-09T05:16:08.173Z,8.60
2022-08-09T05:18:57.798Z,7.43
2022-08-09T05:21:30.152Z,9.07
2022-08-09T05:24:01.701Z,8.25
2022-08-09T05:26:36.936Z,8.57
2022-08-09T05:29:22.222Z,7.75
2022-08-09T05:31:57.566Z,8.05
2022-08-09T05:34:31.857Z,7.05
2022-08-09T05:37:05.171Z,6.93
2022-08-09T05:39:42.397Z,6.68
2022-08-09T05:42:20.607Z,9.32
2022-08-09T05:44:56.059Z,8.02
2022-08-09T05:47:25.418Z,7.20
2022-08-09T05:50:25.455Z,8.30
2022-08-09T05:52:44.251Z,7.82
2022-08-09T05:55:18.259Z,7.93
2022-08-09T05:57:50.977Z,7.20
2022-08-09T06:00:29.536Z,7.90
2022-08-09T06:03:01.817Z,6.85
2022-08-09T06:05:57.016Z,7.53
2022-08-09T06:08:24.354Z,7.60
2022-08-09T06:10:58.248Z,7.60
2022-08-09T06:13:28.596Z,7.68
2022-08-09T06:16:01.696Z,7.50
2022-08-09T06:18:32.541Z,7.10
2022-08-09T06:21:01.565Z,8.00
2022-08-09T06:23:58.143Z,6.97
2022-08-09T06:26:21.309Z,6.35
2022-08-09T06:29:00.872Z,7.40
2022-08-09T06:31:40.430Z,6.90
2022-08-09T06:34:23.108Z,6.30
2022-08-09T06:36:59.597Z,7.20
2022-08-09T06:39:48.091Z,6.28
2022-08-09T06:42:16.006Z,4.97
2022-08-09T06:44:43.482Z,5.55
2022-08-09T06:47:10.712Z,5.38
2022-08-09T06:50:11.917Z,5.68
2022-08-09T06:52:26.723Z,5.50
2022-08-09T06:54:54.232Z,5.75
2022-08-09T06:57:25.897Z,4.97
2022-08-09T07:00:51.082Z,4.57
2022-08-09T07:02:58.103Z,4.93
2022-08-09T07:05:25.440Z,4.75
2022-08-09T07:08:12.469Z,5.53
2022-08-09T07:10:39.773Z,5.63
2022-08-09T07:13:27.308Z,5.07
2022-08-09T07:16:42.915Z,4.70
2022-08-09T07:18:41.167Z,5.68
2022-08-09T07:21:10.424Z,5.50
2022-08-09T07:23:56.582Z,5.57
2022-08-09T07:26:26.049Z,5.15
2022-08-09T07:29:09.162Z,5.80
2022-08-09T07:31:45.359Z,5.25
2022-08-09T07:34:20.446Z,4.47
2022-08-09T07:36:49.863Z,5.47
2022-08-09T07:39:20.306Z,4.93
2022-08-09T07:42:06.475Z,4.90
2022-08-09T07:44:51.798Z,4.93
2022-08-09T07:47:21.598Z,5.40
2022-08-09T07:50:05.159Z,5.90
2022-08-09T07:52:36.647Z,5.18
2022-08-09T07:55:09.520Z,5.93
2022-08-09T07:57:47.069Z,5.65
2022-08-09T08:00:35.858Z,6.38
2022-08-09T08:03:04.480Z,6.18
2022-08-09T08:05:54.421Z,5.28
2022-08-09T08:09:01.314Z,5.32
2022-08-09T08:12:10.721Z,5.50
2022-08-09T08:13:56.854Z,7.82
2022-08-09T08:16:29.651Z,9.63
2022-08-09T08:18:58.665Z,10.32
2022-08-09T08:21:26.560Z,11.80
2022-08-09T08:23:56.201Z,14.63
2022-08-09T08:26:26.402Z,13.85
2022-08-09T08:29:09.465Z,10.85
2022-08-09T08:32:02.579Z,12.18
2022-08-09T08:34:25.421Z,11.38
2022-08-09T08:36:52.841Z,13.27
2022-08-09T08:39:21.988Z,13.68
2022-08-09T08:41:52.405Z,12.32
2022-08-09T08:44:26.742Z,11.48
2022-08-09T08:46:59.735Z,11.18
2022-08-09T08:49:46.371Z,11.13
2022-08-09T08:55:07.282Z,11.70
2022-08-09T08:57:35.332Z,11.35
2022-08-09T09:00:13.060Z,9.93
2022-08-09T09:02:52.866Z,10.75
2022-08-09T09:05:58.396Z,10.65
2022-08-09T09:08:30.368Z,11.02
2022-08-09T09:11:04.112Z,9.05
2022-08-09T09:13:55.304Z,7.68
2022-08-09T09:16:30.445Z,8.85
2022-08-09T09:19:40.220Z,8.75
2022-08-09T09:22:04.145Z,9.23
2022-08-09T09:24:39.616Z,9.38
2022-08-09T09:27:09.114Z,8.63
2022-08-09T09:32:37.092Z,7.72
2022-08-09T09:35:09.554Z,6.88
2022-08-09T09:37:40.992Z,8.38
2022-08-09T09:40:11.838Z,8.00
2022-08-09T09:42:39.661Z,8.00
2022-08-09T09:45:10.635Z,7.60
2022-08-09T09:47:56.210Z,8.27
2022-08-09T09:50:51.364Z,8.70
2022-08-09T09:53:21.714Z,8.32
2022-08-09T09:56:08.906Z,7.82
2022-08-09T09:58:49.220Z,7.68
2022-08-09T10:01:31.508Z,6.82
2022-08-09T10:04:15.883Z,7.95
2022-08-09T10:06:47.216Z,7.55
2022-08-09T10:09:23.373Z,7.88
2022-08-09T10:12:14.585Z,7.80
2022-08-09T10:14:51.743Z,7.53
2022-08-09T10:17:51.071Z,6.05
2022-08-09T10:20:27.110Z,6.38
2022-08-09T10:23:20.055Z,5.60
2022-08-09T10:26:07.679Z,5.93
2022-08-09T10:28:37.438Z,6.22
2022-08-09T10:34:10.847Z,5.55
2022-08-09T10:36:42.872Z,6.88
2022-08-09T10:39:11.407Z,6.60
2022-08-09T10:41:43.725Z,7.32
2022-08-09T10:44:10.995Z,7.93
2022-08-09T10:47:07.514Z,8.45
2022-08-09T10:49:58.623Z,7.78
2022-08-09T10:52:42.955Z,8.77
2022-08-09T10:55:25.718Z,7.80
2022-08-09T10:57:55.641Z,7.38
2022-08-09T11:00:29.827Z,7.13
2022-08-09T11:03:16.507Z,7.15
2022-08-09T11:06:18.570Z,7.70
2022-08-09T11:08:51.109Z,7.22
2022-08-09T11:11:20.529Z,6.35
2022-08-09T11:14:38.222Z,7.85
2022-08-09T11:17:14.664Z,7.90
2022-08-09T11:20:11.349Z,7.00
2022-08-09T11:22:40.833Z,7.45
2022-08-09T11:25:25.934Z,7.43
2022-08-09T11:28:09.287Z,8.13
2022-08-09T11:30:48.143Z,7.93
2022-08-09T11:33:18.541Z,7.03
2022-08-09T11:35:57.714Z,7.15
2022-08-09T11:38:32.619Z,7.30
2022-08-09T11:41:13.827Z,7.65
2022-08-09T11:43:49.219Z,7.90
2022-08-09T11:46:26.467Z,7.40
2022-08-09T11:49:05.423Z,7.47
2022-08-09T11:52:59.107Z,8.45
2022-08-09T11:55:35.100Z,6.70
2022-08-09T11:58:16.919Z,8.10
2022-08-09T12:00:53.440Z,8.23
2022-08-09T12:03:56.147Z,8.55
2022-08-09T12:06:32.094Z,9.17
2022-08-09T12:09:01.215Z,8.40
2022-08-09T12:11:29.289Z,8.00
2022-08-09T12:14:09.507Z,7.47
2022-08-09T12:16:40.810Z,8.25
2022-08-09T12:19:11.369Z,8.68
2022-08-09T12:21:50.235Z,8.25
2022-08-09T12:24:24.043Z,8.05
2022-08-09T12:29:13.274Z,7.63
2022-08-09T12:30:04.319Z,7.82
2022-08-09T12:32:41.873Z,7.28
2022-08-09T12:35:12.591Z,6.80
2022-08-09T12:37:50.768Z,8.00
2022-08-09T12:40:23.262Z,7.55
2022-08-09T12:42:52.716Z,7.88
2022-08-09T12:45:33.707Z,7.45
2022-08-09T12:48:03.685Z,7.53
2022-08-09T12:50:31.806Z,6.78
2022-08-09T12:53:18.212Z,6.97
2022-08-09T12:56:13.651Z,6.80
2022-08-09T12:58:34.075Z,6.65
2022-08-09T13:01:26.689Z,6.80
2022-08-09T13:03:59.211Z,6.13
2022-08-09T13:06:34.500Z,4.55
2022-08-09T13:09:07.023Z,3.80
2022-08-09T13:11:39.568Z,3.60
2022-08-09T13:14:42.383Z,3.38
2022-08-09T13:17:08.684Z,2.92
2022-08-09T13:20:10.635Z,3.38
2022-08-09T13:22:35.596Z,3.50
2022-08-09T13:25:14.153Z,3.00
2022-08-09T13:27:54.686Z,2.85
2022-08-09T13:30:51.032Z,3.08
2022-08-09T13:33:22.438Z,3.15
2022-08-09T13:36:39.757Z,3.50
2022-08-09T13:38:55.464Z,2.67
2022-08-09T13:41:51.937Z,3.08
2022-08-09T13:44:13.774Z,2.95
2022-08-09T13:47:29.012Z,2.97
2022-08-09T13:49:39.689Z,2.80
2022-08-09T13:52:19.501Z,3.00
2022-08-09T13:55:00.553Z,3.55
2022-08-09T13:57:40.500Z,3.40
2022-08-09T14:00:19.613Z,3.10
2022-08-09T14:03:03.042Z,3.35
2022-08-09T14:05:59.911Z,3.20
2022-08-09T14:08:26.818Z,3.53
2022-08-09T14:10:54.660Z,3.22
2022-08-09T14:14:14.918Z,3.13
2022-08-09T14:16:15.124Z,3.10
2022-08-09T14:18:49.971Z,3.13
2022-08-09T14:21:22.714Z,3.53
2022-08-09T14:23:56.889Z,3.58
2022-08-09T14:26:32.004Z,3.03
2022-08-09T14:29:03.448Z,2.80
2022-08-09T14:31:36.002Z,2.88
2022-08-09T14:34:31.017Z,2.80
2022-08-09T14:37:02.630Z,2.80
2022-08-09T14:39:46.396Z,2.75
2022-08-09T14:42:31.082Z,2.40
2022-08-09T14:46:56.090Z,2.40
2022-08-09T14:47:57.000Z,2.47
2022-08-09T14:50:31.115Z,2.17
2022-08-09T14:53:06.324Z,2.85
2022-08-09T14:55:41.937Z,2.25
2022-08-09T14:58:10.178Z,2.47
2022-08-09T15:00:42.236Z,2.38
2022-08-09T15:03:10.829Z,3.05
2022-08-09T15:05:38.750Z,2.13
2022-08-09T15:08:10.273Z,2.50
2022-08-09T15:10:39.050Z,2.58
2022-08-09T15:13:08.918Z,2.30
2022-08-09T15:15:39.304Z,3.78
2022-08-09T15:18:14.310Z,4.45
2022-08-09T15:21:54.922Z,4.32
2022-08-09T15:24:02.710Z,2.20
2022-08-09T15:26:19.255Z,2.65
2022-08-09T15:29:04.105Z,2.20
2022-08-09T15:31:41.901Z,2.70
2022-08-09T15:34:33.579Z,2.70
2022-08-09T15:36:58.560Z,2.83
2022-08-09T15:39:53.365Z,3.17
2022-08-09T15:42:22.509Z,2.42
2022-08-09T15:44:50.808Z,2.20
2022-08-09T15:47:22.550Z,2.30
2022-08-09T15:50:04.737Z,1.98
2022-08-09T15:52:34.483Z,2.45
2022-08-09T15:55:04.792Z,2.47
2022-08-09T15:57:35.322Z,2.38
2022-08-09T16:00:24.548Z,2.95
2022-08-09T16:02:56.417Z,3.08
2022-08-09T16:05:47.193Z,3.15
2022-08-09T16:08:29.738Z,3.25
2022-08-09T16:11:03.029Z,3.38
2022-08-09T16:14:03.664Z,3.90
2022-08-09T16:16:26.055Z,3.70
2022-08-09T16:18:55.777Z,3.90
2022-08-09T16:21:25.571Z,3.60
2022-08-09T16:24:01.654Z,3.65
2022-08-09T16:26:35.683Z,3.53
2022-08-09T16:29:11.434Z,3.83
2022-08-09T16:32:17.643Z,3.65
2022-08-09T16:34:54.982Z,3.65
2022-08-09T16:37:53.812Z,4.75
2022-08-09T16:40:10.258Z,5.80
2022-08-09T16:42:45.270Z,5.20
2022-08-09T16:45:16.692Z,6.07
2022-08-09T16:48:37.915Z,5.68
2022-08-09T16:50:34.284Z,7.07
2022-08-09T16:53:02.935Z,7.13
2022-08-09T16:55:58.795Z,7.50
2022-08-09T16:58:21.168Z,6.95
2022-08-09T17:00:49.118Z,7.07
2022-08-09T17:03:22.071Z,7.95
2022-08-09T17:06:06.568Z,7.60
2022-08-09T17:08:44.907Z,7.88
2022-08-09T17:11:24.416Z,7.90
2022-08-09T17:14:01.780Z,8.18
2022-08-09T17:16:29.661Z,8.23
2022-08-09T17:18:58.294Z,8.13
2022-08-09T17:21:25.736Z,8.90
2022-08-09T17:24:27.136Z,8.90
2022-08-09T17:26:47.819Z,8.38
2022-08-09T17:29:21.019Z,8.77
2022-08-09T17:31:49.430Z,9.18
2022-08-09T17:35:00.771Z,8.85
2022-08-09T17:37:04.755Z,9.00
2022-08-09T17:39:52.972Z,7.85
2022-08-09T17:42:41.104Z,8.30
2022-08-09T17:45:15.878Z,8.82
2022-08-09T17:48:02.904Z,8.60
2022-08-09T17:50:37.070Z,8.30
2022-08-09T17:53:19.797Z,9.10
2022-08-09T17:55:55.279Z,9.43
2022-08-09T17:58:27.131Z,9.15
2022-08-09T18:00:56.750Z,9.20
2022-08-09T18:03:30.455Z,8.38
2022-08-09T18:06:00.905Z,9.00
2022-08-09T18:08:29.018Z,9.48
2022-08-09T18:11:01.801Z,9.43
2022-08-09T18:13:39.712Z,11.30
2022-08-09T18:16:30.451Z,11.77
2022-08-09T18:19:03.811Z,9.55
2022-08-09T18:21:47.060Z,10.18
2022-08-09T18:24:17.647Z,9.98
2022-08-09T18:26:46.246Z,9.68
2022-08-09T18:30:37.724Z,9.40
2022-08-09T18:32:04.921Z,9.15
2022-08-09T18:34:35.592Z,9.00
2022-08-09T18:39:32.472Z,9.18
2022-08-09T18:42:08.939Z,9.18
2022-08-09T18:44:38.814Z,9.10
2022-08-09T18:47:15.756Z,10.38
2022-08-09T18:49:46.870Z,9.38
2022-08-09T18:52:18.839Z,9.60
2022-08-09T18:54:53.428Z,9.52
2022-08-09T18:57:22.900Z,11.35
2022-08-09T18:59:56.349Z,10.80
2022-08-09T19:02:30.787Z,9.52
2022-08-09T19:05:19.693Z,9.70
2022-08-09T19:07:59.086Z,9.43
2022-08-09T19:10:37.638Z,9.15
2022-08-09T19:13:19.861Z,9.75
2022-08-09T19:15:50.132Z,9.48
2022-08-09T19:18:34.087Z,9.15
2022-08-09T19:21:09.241Z,9.13
2022-08-09T19:24:38.011Z,9.02
2022-08-09T19:26:31.944Z,9.60
2022-08-09T19:29:03.218Z,9.48
2022-08-09T19:31:45.657Z,11.52
2022-08-09T19:34:21.330Z,9.18
2022-08-09T19:36:50.913Z,9.40
2022-08-09T19:39:20.352Z,10.18
2022-08-09T19:41:48.897Z,9.70
2022-08-09T19:44:21.288Z,10.27
2022-08-09T19:46:53.288Z,9.70
2022-08-09T19:50:48.464Z,9.57
2022-08-09T19:52:12.412Z,10.20
2022-08-09T19:54:41.076Z,9.20
2022-08-09T19:57:08.370Z,9.70
2022-08-09T19:59:58.481Z,10.23
2022-08-09T20:04:09.705Z,9.40
2022-08-09T20:05:15.043Z,9.90
2022-08-09T20:07:59.398Z,10.57
2022-08-09T20:10:34.959Z,10.77
2022-08-09T20:13:06.584Z,10.35
2022-08-09T20:16:35.161Z,10.07
2022-08-09T20:18:28.054Z,10.75
2022-08-09T20:20:56.201Z,10.98
2022-08-09T20:23:24.381Z,10.43
2022-08-09T20:26:06.964Z,9.88
2022-08-09T20:28:47.729Z,10.15
2022-08-09T20:31:16.268Z,9.73
2022-08-09T20:33:44.744Z,10.20
2022-08-09T20:36:13.322Z,10.13
2022-08-09T20:41:35.559Z,9.38
2022-08-09T20:44:10.474Z,9.90
2022-08-09T20:46:44.542Z,9.48
2022-08-09T20:49:16.142Z,9.20
2022-08-09T20:51:50.813Z,9.80
2022-08-09T20:54:18.409Z,9.90
2022-08-09T20:56:49.770Z,9.70
2022-08-09T20:59:25.051Z,9.48
2022-08-09T21:02:11.243Z,8.93
2022-08-09T21:05:54.936Z,10.25
2022-08-09T21:07:40.411Z,9.52
2022-08-09T21:10:11.605Z,9.98
2022-08-09T21:12:39.179Z,9.43
2022-08-09T21:15:12.384Z,10.25
2022-08-09T21:18:21.268Z,9.77
2022-08-09T21:20:30.244Z,9.05
2022-08-09T21:22:59.472Z,9.07
2022-08-09T21:25:59.378Z,9.02
2022-08-09T21:28:33.749Z,8.85
2022-08-09T21:31:17.533Z,9.13
2022-08-09T21:33:50.308Z,8.73
2022-08-09T21:36:28.079Z,8.30
2022-08-09T21:39:00.022Z,7.97
2022-08-09T21:42:05.569Z,8.65
2022-08-09T21:44:33.037Z,8.15
2022-08-09T21:47:07.680Z,8.55
2022-08-09T21:49:42.678Z,8.05
2022-08-09T21:52:15.044Z,8.60
2022-08-09T21:54:56.928Z,7.32
2022-08-09T21:57:39.190Z,7.50
2022-08-09T22:00:25.507Z,7.65
2022-08-09T22:02:59.168Z,8.18
2022-08-09T22:05:37.308Z,8.15
2022-08-09T22:08:13.000Z,8.25
2022-08-09T22:11:49.055Z,8.40
2022-08-09T22:13:34.841Z,8.52
2022-08-09T22:16:08.386Z,9.02
2022-08-09T22:18:52.220Z,9.32
2022-08-09T22:21:45.419Z,8.48
2022-08-09T22:24:16.898Z,8.88
2022-08-09T22:26:51.813Z,8.82
2022-08-09T22:29:24.009Z,9.13
2022-08-09T22:31:57.536Z,8.52
2022-08-09T22:34:28.700Z,8.90
2022-08-09T22:39:55.902Z,8.13
2022-08-09T22:42:21.244Z,8.02
2022-08-09T22:48:04.505Z,8.18
2022-08-09T22:48:11.602Z,7.85
2022-08-09T22:50:31.213Z,7.85
2022-08-09T22:53:03.695Z,8.43
2022-08-09T22:56:06.448Z,7.05
2022-08-09T22:58:20.166Z,7.32
2022-08-09T23:00:58.531Z,7.30
2022-08-09T23:04:02.750Z,7.40
2022-08-09T23:06:14.317Z,7.00
2022-08-09T23:08:44.924Z,7.10
2022-08-09T23:11:16.789Z,5.95
2022-08-09T23:13:51.615Z,5.90
2022-08-09T23:16:22.140Z,6.35
2022-08-09T23:21:25.073Z,5.32
2022-08-09T23:24:01.500Z,5.65
2022-08-09T23:26:36.002Z,5.53
2022-08-09T23:29:08.219Z,5.68
2022-08-09T23:31:35.306Z,5.18
2022-08-09T23:34:03.726Z,5.40
2022-08-09T23:36:32.337Z,5.25
2022-08-09T23:38:59.613Z,5.05
2022-08-09T23:41:28.818Z,5.10
2022-08-09T23:44:01.817Z,5.13
2022-08-09T23:46:30.731Z,5.03
2022-08-09T23:48:59.088Z,4.75
2022-08-09T23:51:27.285Z,5.05
2022-08-09T23:54:03.234Z,5.00
2022-08-09T23:56:53.013Z,4.78
2022-08-09T23:59:20.699Z,4.82
